Wetterdaten: Woche 18.05.15 - 24.05.15 (KW21)
Datum Zeit Temperatur Luftfeuchte Luftdruck Niederschlag Windrichtung Sonnenschein Solar Wind
18.05.2015 00:00 11,2 C 87 % 1018,2 hPa 0,0 l/m NO 0,00 h 0 W/m 4,0 km/h (1 Bft)
18.05.2015 01:00 10,6 C 88 % 1017,6 hPa 0,0 l/m NO 0,00 h 0 W/m 4,3 km/h (1 Bft)
18.05.2015 02:00 10,1 C 89 % 1016,9 hPa 0,0 l/m NO 0,00 h 0 W/m 2,5 km/h (1 Bft)
18.05.2015 03:00 9,5 C 90 % 1016,1 hPa 0,0 l/m NO 0,00 h 0 W/m 2,7 km/h (1 Bft)
18.05.2015 04:00 8,9 C 91 % 1015,6 hPa 0,0 l/m NO 0,00 h 0 W/m 3,9 km/h (1 Bft)
18.05.2015 05:00 8,4 C 91 % 1015,1 hPa 0,0 l/m NO 0,00 h 7 W/m 1,1 km/h (0 Bft)
18.05.2015 06:00 8,2 C 92 % 1014,6 hPa 0,0 l/m N 0,00 h 43 W/m 0,1 km/h (0 Bft)
18.05.2015 07:00 10,5 C 90 % 1014,2 hPa 0,0 l/m N 0,75 h 180 W/m 0,0 km/h (0 Bft)
18.05.2015 08:00 12,3 C 86 % 1013,7 hPa 0,0 l/m NO 1,00 h 350 W/m 2,8 km/h (1 Bft)
18.05.2015 09:00 14,8 C 80 % 1013,1 hPa 0,0 l/m NO 1,00 h 519 W/m 6,7 km/h (2 Bft)
18.05.2015 10:00 17,1 C 71 % 1012,3 hPa 0,0 l/m SW 0,92 h 644 W/m 9,5 km/h (2 Bft)
18.05.2015 11:00 18,1 C 65 % 1011,5 hPa 0,0 l/m W 0,92 h 777 W/m 11,3 km/h (2 Bft)
18.05.2015 12:00 19,4 C 62 % 1010,6 hPa 0,0 l/m W-SW 0,92 h 884 W/m 13,8 km/h (3 Bft)
18.05.2015 13:00 20,7 C 58 % 1009,6 hPa 0,0 l/m SW 1,00 h 914 W/m 16,0 km/h (3 Bft)
18.05.2015 14:00 21,6 C 54 % 1008,6 hPa 0,0 l/m SW 1,00 h 867 W/m 19,4 km/h (3 Bft)
18.05.2015 15:00 22,6 C 53 % 1007,4 hPa 0,0 l/m W-SW 1,00 h 798 W/m 17,8 km/h (3 Bft)
18.05.2015 16:00 23,1 C 48 % 1006,5 hPa 0,0 l/m W 1,00 h 686 W/m 22,7 km/h (4 Bft)
18.05.2015 17:00 23,1 C 47 % 1005,6 hPa 0,0 l/m W 1,00 h 539 W/m 21,4 km/h (4 Bft)
18.05.2015 18:00 22,8 C 47 % 1005,0 hPa 0,0 l/m W 1,00 h 359 W/m 15,7 km/h (3 Bft)
18.05.2015 19:00 21,6 C 53 % 1004,8 hPa 0,0 l/m W-SW 1,00 h 175 W/m 9,5 km/h (2 Bft)
18.05.2015 20:00 19,7 C 59 % 1004,8 hPa 0,0 l/m W 0,17 h 28 W/m 7,8 km/h (2 Bft)
18.05.2015 21:00 17,6 C 70 % 1004,8 hPa 0,0 l/m N 0,00 h 0 W/m 0,4 km/h (0 Bft)
18.05.2015 22:00 17,0 C 74 % 1005,0 hPa 0,0 l/m W 0,00 h 0 W/m 0,4 km/h (0 Bft)
18.05.2015 23:00 15,8 C 81 % 1005,2 hPa 0,0 l/m N 0,00 h 0 W/m 0,8 km/h (0 Bft)
19.05.2015 00:00 14,8 C 78 % 1005,3 hPa 0,0 l/m W 0,00 h 0 W/m 6,6 km/h (2 Bft)
19.05.2015 01:00 14,7 C 64 % 1005,8 hPa 0,0 l/m SW 0,00 h 0 W/m 8,8 km/h (2 Bft)
19.05.2015 02:00 13,4 C 67 % 1005,7 hPa 0,0 l/m W-SW 0,00 h 0 W/m 4,3 km/h (1 Bft)
19.05.2015 03:00 12,4 C 74 % 1005,5 hPa 0,0 l/m W-SW 0,00 h 0 W/m 9,0 km/h (2 Bft)
19.05.2015 04:00 12,8 C 75 % 1005,6 hPa 0,0 l/m SW 0,00 h 0 W/m 11,6 km/h (2 Bft)
19.05.2015 05:00 13,4 C 72 % 1005,5 hPa 0,0 l/m SW 0,00 h 0 W/m 14,2 km/h (3 Bft)
19.05.2015 06:00 13,7 C 71 % 1005,6 hPa 0,0 l/m W-SW 0,00 h 15 W/m 14,6 km/h (3 Bft)
19.05.2015 07:00 14,0 C 70 % 1005,9 hPa 0,0 l/m W-SW 0,00 h 46 W/m 17,0 km/h (3 Bft)
19.05.2015 08:00 14,2 C 72 % 1006,3 hPa 0,0 l/m W-SW 0,00 h 74 W/m 16,5 km/h (3 Bft)
19.05.2015 09:00 14,3 C 73 % 1006,6 hPa 0,0 l/m W-SW 0,00 h 166 W/m 15,0 km/h (3 Bft)
19.05.2015 10:00 14,9 C 71 % 1006,8 hPa 0,0 l/m W-SW 0,00 h 116 W/m 14,4 km/h (3 Bft)
19.05.2015 11:00 14,1 C 78 % 1007,1 hPa 0,0 l/m SW 0,00 h 83 W/m 11,0 km/h (2 Bft)
19.05.2015 12:00 14,1 C 78 % 1007,3 hPa 0,0 l/m W-SW 0,00 h 85 W/m 11,2 km/h (2 Bft)
19.05.2015 13:00 14,2 C 75 % 1007,3 hPa 0,0 l/m W-SW 0,00 h 98 W/m 12,6 km/h (3 Bft)
19.05.2015 14:00 14,8 C 73 % 1007,3 hPa 0,0 l/m W-SW 0,00 h 281 W/m 19,2 km/h (3 Bft)
19.05.2015 15:00 14,4 C 75 % 1007,3 hPa 0,0 l/m N-NW 0,00 h 89 W/m 13,1 km/h (3 Bft)
19.05.2015 16:00 13,8 C 80 % 1007,3 hPa 0,0 l/m W-SW 0,00 h 113 W/m 5,2 km/h (1 Bft)
19.05.2015 17:00 13,2 C 83 % 1007,5 hPa 0,0 l/m W 0,00 h 82 W/m 14,2 km/h (3 Bft)
19.05.2015 18:00 12,5 C 86 % 1007,8 hPa 0,0 l/m SW 0,00 h 58 W/m 10,5 km/h (2 Bft)
19.05.2015 19:00 12,2 C 89 % 1008,1 hPa 0,0 l/m SW 0,00 h 39 W/m 8,6 km/h (2 Bft)
19.05.2015 20:00 11,7 C 90 % 1008,5 hPa 0,0 l/m S-SW 0,00 h 11 W/m 7,1 km/h (2 Bft)
19.05.2015 21:00 11,0 C 92 % 1009,1 hPa 0,0 l/m SW 0,00 h 0 W/m 4,2 km/h (1 Bft)
19.05.2015 22:00 10,8 C 93 % 1009,7 hPa 0,0 l/m SW 0,00 h 0 W/m 8,6 km/h (2 Bft)
19.05.2015 23:00 10,4 C 94 % 1010,0 hPa 0,8 l/m SW 0,00 h 0 W/m 14,0 km/h (3 Bft)
20.05.2015 00:00 10,0 C 95 % 1010,2 hPa 0,8 l/m S-SW 0,00 h 0 W/m 10,4 km/h (2 Bft)
20.05.2015 01:00 9,5 C 96 % 1010,1 hPa 0,8 l/m SW 0,00 h 0 W/m 9,3 km/h (2 Bft)
20.05.2015 02:00 9,4 C 96 % 1009,9 hPa 0,8 l/m SW 0,00 h 0 W/m 6,7 km/h (2 Bft)
20.05.2015 03:00 9,0 C 96 % 1009,8 hPa 1,4 l/m SW 0,00 h 0 W/m 7,6 km/h (2 Bft)
20.05.2015 04:00 8,7 C 97 % 1010,1 hPa 1,4 l/m W-SW 0,00 h 0 W/m 7,6 km/h (2 Bft)
20.05.2015 05:00 8,6 C 97 % 1010,3 hPa 1,2 l/m W-SW 0,00 h 0 W/m 5,1 km/h (1 Bft)
20.05.2015 06:00 7,8 C 96 % 1010,7 hPa 1,6 l/m W-SW 0,00 h 7 W/m 9,4 km/h (2 Bft)
20.05.2015 07:00 7,3 C 96 % 1011,2 hPa 1,6 l/m W 0,00 h 20 W/m 4,5 km/h (1 Bft)
20.05.2015 08:00 7,5 C 97 % 1011,4 hPa 0,6 l/m W 0,00 h 55 W/m 1,6 km/h (1 Bft)
20.05.2015 09:00 8,1 C 97 % 1011,7 hPa 0,2 l/m S 0,00 h 69 W/m 9,7 km/h (2 Bft)
20.05.2015 10:00 7,9 C 96 % 1012,1 hPa 0,4 l/m S-SW 0,00 h 54 W/m 13,7 km/h (3 Bft)
20.05.2015 11:00 7,8 C 97 % 1012,6 hPa 0,6 l/m SW 0,00 h 111 W/m 18,5 km/h (3 Bft)
20.05.2015 12:00 8,2 C 96 % 1012,8 hPa 0,4 l/m SW 0,00 h 114 W/m 17,7 km/h (3 Bft)
20.05.2015 13:00 7,9 C 95 % 1013,5 hPa 3,0 l/m SW 0,00 h 63 W/m 3,7 km/h (1 Bft)
20.05.2015 14:00 8,5 C 94 % 1013,7 hPa 0,2 l/m SO 0,00 h 207 W/m 6,1 km/h (2 Bft)
20.05.2015 15:00 8,6 C 92 % 1013,9 hPa 3,4 l/m SO 0,00 h 66 W/m 8,3 km/h (2 Bft)
20.05.2015 16:00 7,0 C 94 % 1014,5 hPa 0,8 l/m SW 0,00 h 80 W/m 8,3 km/h (2 Bft)
20.05.2015 17:00 7,6 C 95 % 1014,6 hPa 0,2 l/m S-SW 0,00 h 103 W/m 5,8 km/h (1 Bft)
20.05.2015 18:00 7,8 C 95 % 1014,9 hPa 0,4 l/m S-SW 0,00 h 87 W/m 4,9 km/h (1 Bft)
20.05.2015 19:00 7,5 C 95 % 1015,7 hPa 1,6 l/m W-NW 0,00 h 15 W/m 10,2 km/h (2 Bft)
20.05.2015 20:00 6,3 C 95 % 1016,3 hPa 0,8 l/m N 0,00 h 7 W/m 0,0 km/h (0 Bft)
20.05.2015 21:00 6,3 C 96 % 1017,0 hPa 0,2 l/m W-NW 0,00 h 0 W/m 0,7 km/h (0 Bft)
20.05.2015 22:00 6,3 C 96 % 1017,8 hPa 0,0 l/m W 0,00 h 0 W/m 1,5 km/h (1 Bft)
20.05.2015 23:00 6,3 C 96 % 1018,1 hPa 0,2 l/m W-SW 0,00 h 0 W/m 7,4 km/h (2 Bft)
21.05.2015 00:00 6,0 C 97 % 1018,3 hPa 0,0 l/m W-SW 0,00 h 0 W/m 5,6 km/h (1 Bft)
21.05.2015 01:00 5,9 C 97 % 1018,3 hPa 0,0 l/m W-SW 0,00 h 0 W/m 1,2 km/h (1 Bft)
21.05.2015 02:00 6,0 C 97 % 1018,5 hPa 0,0 l/m W-SW 0,00 h 0 W/m 0,9 km/h (0 Bft)
21.05.2015 03:00 6,0 C 97 % 1019,0 hPa 0,0 l/m W-SW 0,00 h 0 W/m 4,9 km/h (1 Bft)
21.05.2015 04:00 5,9 C 97 % 1019,1 hPa 0,0 l/m W-SW 0,00 h 0 W/m 3,7 km/h (1 Bft)
21.05.2015 05:00 5,8 C 97 % 1019,4 hPa 0,0 l/m W-SW 0,00 h 5 W/m 2,4 km/h (1 Bft)
21.05.2015 06:00 5,7 C 97 % 1019,8 hPa 0,0 l/m N 0,00 h 25 W/m 0,0 km/h (0 Bft)
21.05.2015 07:00 6,2 C 98 % 1020,1 hPa 0,0 l/m W-SW 0,00 h 63 W/m 0,7 km/h (0 Bft)
21.05.2015 08:00 7,3 C 97 % 1020,7 hPa 0,0 l/m W 0,08 h 176 W/m 7,2 km/h (2 Bft)
21.05.2015 09:00 8,7 C 90 % 1021,1 hPa 0,0 l/m N-NO 0,00 h 237 W/m 13,4 km/h (3 Bft)
21.05.2015 10:00 9,9 C 82 % 1021,4 hPa 0,0 l/m O-NO 0,17 h 326 W/m 15,2 km/h (3 Bft)
21.05.2015 11:00 10,7 C 77 % 1021,7 hPa 0,0 l/m NO 0,00 h 296 W/m 14,5 km/h (3 Bft)
21.05.2015 12:00 11,5 C 70 % 1022,0 hPa 0,0 l/m NO 0,00 h 287 W/m 16,8 km/h (3 Bft)
21.05.2015 13:00 10,0 C 80 % 1022,2 hPa 0,0 l/m O-SO 0,00 h 68 W/m 9,0 km/h (2 Bft)
21.05.2015 14:00 10,0 C 81 % 1022,2 hPa 0,0 l/m N 0,00 h 98 W/m 7,2 km/h (2 Bft)
21.05.2015 15:00 11,0 C 72 % 1022,2 hPa 0,0 l/m N-NO 0,00 h 136 W/m 11,6 km/h (2 Bft)
21.05.2015 16:00 11,4 C 69 % 1022,3 hPa 0,0 l/m O-NO 0,00 h 144 W/m 9,0 km/h (2 Bft)
21.05.2015 17:00 11,8 C 68 % 1022,5 hPa 0,0 l/m O 0,08 h 159 W/m 6,7 km/h (2 Bft)
21.05.2015 18:00 12,0 C 69 % 1023,0 hPa 0,0 l/m O-SO 0,00 h 99 W/m 7,5 km/h (2 Bft)
21.05.2015 19:00 10,5 C 85 % 1023,3 hPa 0,0 l/m SW 0,25 h 92 W/m 11,2 km/h (2 Bft)
21.05.2015 20:00 9,4 C 91 % 1023,7 hPa 0,0 l/m S-SW 0,00 h 20 W/m 10,2 km/h (2 Bft)
21.05.2015 21:00 8,7 C 94 % 1024,4 hPa 0,0 l/m SW 0,00 h 0 W/m 9,7 km/h (2 Bft)
21.05.2015 22:00 8,4 C 92 % 1024,9 hPa 0,0 l/m S-SW 0,00 h 0 W/m 6,4 km/h (2 Bft)
21.05.2015 23:00 8,3 C 90 % 1024,8 hPa 0,0 l/m S-SW 0,00 h 0 W/m 1,5 km/h (1 Bft)
22.05.2015 00:00 7,7 C 90 % 1024,8 hPa 0,0 l/m N 0,00 h 0 W/m 0,3 km/h (0 Bft)
22.05.2015 01:00 6,7 C 90 % 1024,7 hPa 0,0 l/m N 0,00 h 0 W/m 0,1 km/h (0 Bft)
22.05.2015 02:00 5,8 C 91 % 1024,7 hPa 0,0 l/m N 0,00 h 0 W/m 0,0 km/h (0 Bft)
22.05.2015 03:00 5,3 C 93 % 1024,6 hPa 0,0 l/m N 0,00 h 0 W/m 1,1 km/h (0 Bft)
22.05.2015 04:00 4,6 C 94 % 1024,4 hPa 0,0 l/m S-SW 0,00 h 0 W/m 1,7 km/h (1 Bft)
22.05.2015 05:00 3,9 C 94 % 1024,1 hPa 0,0 l/m S-SW 0,00 h 6 W/m 0,9 km/h (0 Bft)
22.05.2015 06:00 3,6 C 94 % 1024,1 hPa 0,0 l/m W 0,00 h 16 W/m 6,2 km/h (2 Bft)
22.05.2015 07:00 4,6 C 94 % 1024,4 hPa 0,0 l/m W 0,00 h 37 W/m 4,0 km/h (1 Bft)
22.05.2015 08:00 7,0 C 87 % 1024,4 hPa 0,0 l/m N-NW 0,33 h 248 W/m 8,9 km/h (2 Bft)
22.05.2015 09:00 10,2 C 77 % 1024,2 hPa 0,0 l/m O-NO 1,00 h 503 W/m 11,8 km/h (2 Bft)
22.05.2015 10:00 11,9 C 73 % 1023,9 hPa 0,0 l/m NO 0,50 h 367 W/m 14,0 km/h (3 Bft)
22.05.2015 11:00 12,6 C 68 % 1023,5 hPa 0,0 l/m O-NO 0,17 h 343 W/m 14,9 km/h (3 Bft)
22.05.2015 12:00 13,5 C 61 % 1023,2 hPa 0,0 l/m O-NO 0,25 h 334 W/m 20,1 km/h (4 Bft)
22.05.2015 13:00 13,3 C 62 % 1022,8 hPa 0,0 l/m O 0,00 h 129 W/m 15,7 km/h (3 Bft)
22.05.2015 14:00 12,9 C 63 % 1022,5 hPa 0,0 l/m O 0,00 h 131 W/m 14,4 km/h (3 Bft)
22.05.2015 15:00 13,8 C 62 % 1021,7 hPa 0,0 l/m O-SO 0,25 h 433 W/m 15,0 km/h (3 Bft)
22.05.2015 16:00 14,4 C 58 % 1020,9 hPa 0,0 l/m O-NO 0,08 h 280 W/m 13,7 km/h (3 Bft)
22.05.2015 17:00 15,4 C 53 % 1020,4 hPa 0,0 l/m O-NO 0,67 h 376 W/m 14,8 km/h (3 Bft)
22.05.2015 18:00 14,7 C 55 % 1020,0 hPa 0,0 l/m O 0,42 h 181 W/m 13,6 km/h (3 Bft)
22.05.2015 19:00 14,4 C 60 % 1019,8 hPa 0,0 l/m SO 0,67 h 141 W/m 9,0 km/h (2 Bft)
22.05.2015 20:00 12,9 C 71 % 1019,8 hPa 0,0 l/m S 0,08 h 32 W/m 4,7 km/h (1 Bft)
22.05.2015 21:00 10,8 C 80 % 1020,1 hPa 0,0 l/m N 0,00 h 6 W/m 1,3 km/h (1 Bft)
22.05.2015 22:00 9,3 C 88 % 1020,1 hPa 0,0 l/m N 0,00 h 0 W/m 0,0 km/h (0 Bft)
22.05.2015 23:00 8,9 C 91 % 1020,0 hPa 0,0 l/m N 0,00 h 0 W/m 0,0 km/h (0 Bft)
23.05.2015 00:00 8,2 C 92 % 1019,5 hPa 0,0 l/m N 0,00 h 0 W/m 0,3 km/h (0 Bft)
23.05.2015 01:00 7,9 C 91 % 1019,1 hPa 0,0 l/m S 0,00 h 0 W/m 0,9 km/h (0 Bft)
23.05.2015 02:00 7,6 C 91 % 1018,6 hPa 0,0 l/m S 0,00 h 0 W/m 2,7 km/h (1 Bft)
23.05.2015 03:00 7,4 C 91 % 1018,1 hPa 0,0 l/m N 0,00 h 0 W/m 0,3 km/h (0 Bft)
23.05.2015 04:00 7,1 C 91 % 1017,6 hPa 0,0 l/m N 0,00 h 0 W/m 0,0 km/h (0 Bft)
23.05.2015 05:00 6,4 C 91 % 1017,5 hPa 0,0 l/m S 0,00 h 8 W/m 4,3 km/h (1 Bft)
23.05.2015 06:00 6,5 C 93 % 1017,4 hPa 0,0 l/m N 0,00 h 35 W/m 1,5 km/h (1 Bft)
23.05.2015 07:00 7,4 C 94 % 1017,6 hPa 0,0 l/m W-NW 0,00 h 63 W/m 5,6 km/h (1 Bft)
23.05.2015 08:00 9,4 C 87 % 1017,6 hPa 0,0 l/m W-NW 0,00 h 128 W/m 2,4 km/h (1 Bft)
23.05.2015 09:00 11,2 C 77 % 1017,5 hPa 0,0 l/m NO 0,00 h 171 W/m 7,8 km/h (2 Bft)
23.05.2015 10:00 12,2 C 72 % 1017,4 hPa 0,0 l/m NO 0,08 h 239 W/m 10,2 km/h (2 Bft)
23.05.2015 11:00 14,1 C 64 % 1017,2 hPa 0,0 l/m O 0,58 h 484 W/m 16,1 km/h (3 Bft)
23.05.2015 12:00 15,2 C 56 % 1016,8 hPa 0,0 l/m NO 0,25 h 410 W/m 16,2 km/h (3 Bft)
23.05.2015 13:00 15,4 C 52 % 1016,4 hPa 0,0 l/m NO 0,08 h 294 W/m 17,2 km/h (3 Bft)
23.05.2015 14:00 15,8 C 51 % 1016,1 hPa 0,0 l/m O-NO 0,00 h 349 W/m 14,2 km/h (3 Bft)
23.05.2015 15:00 16,5 C 50 % 1015,5 hPa 0,0 l/m O-NO 0,25 h 410 W/m 16,0 km/h (3 Bft)
23.05.2015 16:00 16,5 C 49 % 1015,2 hPa 0,0 l/m O 0,00 h 244 W/m 15,3 km/h (3 Bft)
23.05.2015 17:00 16,6 C 50 % 1015,3 hPa 0,0 l/m O-NO 0,42 h 333 W/m 13,3 km/h (3 Bft)
23.05.2015 18:00 16,3 C 50 % 1015,1 hPa 0,0 l/m O-SO 0,08 h 120 W/m 9,2 km/h (2 Bft)
23.05.2015 19:00 15,3 C 56 % 1015,3 hPa 0,0 l/m O 0,00 h 50 W/m 3,1 km/h (1 Bft)
23.05.2015 20:00 14,4 C 63 % 1015,4 hPa 0,0 l/m NO 0,00 h 7 W/m 3,1 km/h (1 Bft)
23.05.2015 21:00 13,4 C 71 % 1015,9 hPa 0,0 l/m NO 0,00 h 0 W/m 3,9 km/h (1 Bft)
23.05.2015 22:00 12,8 C 73 % 1016,4 hPa 0,0 l/m S-SW 0,00 h 0 W/m 4,3 km/h (1 Bft)
23.05.2015 23:00 11,9 C 75 % 1016,6 hPa 0,0 l/m SW 0,00 h 0 W/m 9,8 km/h (2 Bft)
24.05.2015 00:00 11,3 C 79 % 1016,6 hPa 0,0 l/m S-SW 0,00 h 0 W/m 2,3 km/h (1 Bft)
24.05.2015 01:00 10,7 C 83 % 1016,2 hPa 0,0 l/m N 0,00 h 0 W/m 2,0 km/h (1 Bft)
24.05.2015 02:00 10,5 C 84 % 1015,8 hPa 0,0 l/m N 0,00 h 0 W/m 0,0 km/h (0 Bft)
24.05.2015 03:00 10,1 C 85 % 1015,6 hPa 0,0 l/m N 0,00 h 0 W/m 0,0 km/h (0 Bft)
24.05.2015 04:00 9,6 C 87 % 1015,3 hPa 0,0 l/m N 0,00 h 0 W/m 0,0 km/h (0 Bft)
24.05.2015 05:00 9,3 C 90 % 1015,3 hPa 0,0 l/m N 0,00 h 5 W/m 0,0 km/h (0 Bft)
24.05.2015 06:00 9,3 C 92 % 1015,5 hPa 0,0 l/m N 0,00 h 20 W/m 0,0 km/h (0 Bft)
24.05.2015 07:00 10,0 C 91 % 1015,7 hPa 0,0 l/m N 0,00 h 58 W/m 0,9 km/h (0 Bft)
24.05.2015 08:00 11,3 C 85 % 1016,1 hPa 0,0 l/m N 0,00 h 116 W/m 0,4 km/h (0 Bft)
24.05.2015 09:00 13,1 C 74 % 1016,3 hPa 0,0 l/m O-SO 0,33 h 283 W/m 3,9 km/h (1 Bft)
24.05.2015 10:00 14,9 C 66 % 1016,4 hPa 0,0 l/m O 0,50 h 342 W/m 10,7 km/h (2 Bft)
24.05.2015 11:00 15,1 C 64 % 1016,4 hPa 0,0 l/m O-SO 0,00 h 278 W/m 15,8 km/h (3 Bft)
24.05.2015 12:00 15,4 C 63 % 1016,2 hPa 0,0 l/m O-NO 0,08 h 360 W/m 17,7 km/h (3 Bft)
24.05.2015 13:00 16,3 C 61 % 1016,1 hPa 0,0 l/m O-NO 0,42 h 440 W/m 18,2 km/h (3 Bft)
24.05.2015 14:00 16,3 C 61 % 1016,0 hPa 0,0 l/m O-SO 0,00 h 347 W/m 17,2 km/h (3 Bft)
24.05.2015 15:00 16,3 C 61 % 1015,8 hPa 0,0 l/m O-NO 0,25 h 346 W/m 17,4 km/h (3 Bft)
24.05.2015 16:00 17,2 C 59 % 1015,5 hPa 0,0 l/m O 0,75 h 416 W/m 18,4 km/h (3 Bft)
24.05.2015 17:00 17,2 C 58 % 1015,3 hPa 0,0 l/m NO 0,50 h 292 W/m 19,7 km/h (3 Bft)
24.05.2015 18:00 16,4 C 61 % 1015,1 hPa 0,0 l/m O-NO 0,00 h 115 W/m 16,4 km/h (3 Bft)
24.05.2015 19:00 15,6 C 63 % 1015,1 hPa 0,0 l/m O 0,00 h 55 W/m 12,9 km/h (3 Bft)
24.05.2015 20:00 14,9 C 65 % 1015,1 hPa 0,0 l/m O 0,00 h 20 W/m 10,1 km/h (2 Bft)
24.05.2015 21:00 14,3 C 69 % 1015,4 hPa 0,0 l/m O 0,00 h 0 W/m 3,5 km/h (1 Bft)
24.05.2015 22:00 13,7 C 73 % 1015,6 hPa 0,0 l/m O 0,00 h 0 W/m 4,3 km/h (1 Bft)
24.05.2015 23:00 13,2 C 77 % 1015,4 hPa 0,0 l/m N 0,00 h 0 W/m 1,7 km/h (1 Bft)
Min-Datum _ 22.05.15 18.05.15 18.05.15 - - - - 18.05.15
_ Min-Zeit 06:10 18:15 19:25 - - - - 00:20
Minimum _ 3,4 C 45 % 1004,7 hPa - - - - 0,0 km/h (0 Bft)
Max-Datum _ 18.05.15 21.05.15 21.05.15 20.05.15 - 18.05.15 24.05.15 18.05.15
_ Max-Zeit 17:20 07:05 22:25 15:35 - 07:15 13:10 16:15
Maximum _ 23,4 C 98 % 1025,0 hPa 3,4 l/m - 0,08 h 1116 W/m 33,8 km/h
W (5 Bft)
Durchschnitt _ 11,6 C 79 % 1015,4 hPa #23,4 l/m SW #22:15 h 206 W/m 8,2 km/h (2 Bft)